createdAt,value
2019-01-28T00:00:56.292Z,1.50
2019-01-28T00:03:24.758Z,1.25
2019-01-28T00:05:53.047Z,0.60
2019-01-28T00:08:22.177Z,0.79
2019-01-28T00:10:50.518Z,0.73
2019-01-28T00:13:18.951Z,1.10
2019-01-28T00:15:47.840Z,1.23
2019-01-28T00:18:16.234Z,1.40
2019-01-28T00:20:44.541Z,1.23
2019-01-28T00:23:12.825Z,1.51
2019-01-28T00:25:41.154Z,1.72
2019-01-28T00:28:10.674Z,1.61
2019-01-28T00:30:38.924Z,1.83
2019-01-28T00:33:07.320Z,1.85
2019-01-28T00:35:37.231Z,1.54
2019-01-28T00:38:05.512Z,1.69
2019-01-28T00:40:33.843Z,1.42
2019-01-28T00:43:02.136Z,1.47
2019-01-28T00:45:30.414Z,1.66
2019-01-28T00:47:58.742Z,1.74
2019-01-28T00:50:27.034Z,1.53
2019-01-28T00:52:55.310Z,1.52
2019-01-28T00:55:23.626Z,1.66
2019-01-28T00:57:53.176Z,1.64
2019-01-28T01:00:23.318Z,1.69
2019-01-28T01:02:51.709Z,1.01
2019-01-28T01:05:20.069Z,1.47
2019-01-28T01:07:48.360Z,0.61
2019-01-28T01:10:17.535Z,0.73
2019-01-28T01:12:45.808Z,1.15
2019-01-28T01:15:16.043Z,1.04
2019-01-28T01:17:46.008Z,1.02
2019-01-28T01:20:15.928Z,1.28
2019-01-28T01:22:44.290Z,1.26
2019-01-28T01:25:13.346Z,1.27
2019-01-28T01:27:41.637Z,1.37
2019-01-28T01:30:15.547Z,1.52
2019-01-28T01:32:43.896Z,1.49
2019-01-28T01:35:12.229Z,1.62
2019-01-28T01:37:40.519Z,1.50
2019-01-28T01:40:13.827Z,1.31
2019-01-28T01:42:42.098Z,1.14
2019-01-28T01:45:12.835Z,1.35
2019-01-28T01:47:42.794Z,1.46
2019-01-28T01:50:11.694Z,1.62
2019-01-28T01:52:39.977Z,1.52
2019-01-28T01:55:10.851Z,1.13
2019-01-28T01:57:39.145Z,1.28
2019-01-28T02:00:15.850Z,1.42
2019-01-28T02:02:44.122Z,1.51
2019-01-28T02:05:12.479Z,1.53
2019-01-28T02:07:40.812Z,1.63
2019-01-28T02:10:13.991Z,1.66
2019-01-28T02:12:43.122Z,1.73
2019-01-28T02:15:14.543Z,1.56
2019-01-28T02:17:42.853Z,1.66
2019-01-28T02:20:11.764Z,1.70
2019-01-28T02:22:40.105Z,1.64
2019-01-28T02:25:10.819Z,1.77
2019-01-28T02:27:39.100Z,1.70
2019-01-28T02:30:15.091Z,1.66
2019-01-28T02:32:43.384Z,1.79
2019-01-28T02:38:30.636Z,1.42
2019-01-28T02:40:58.910Z,1.41
2019-01-28T02:43:27.196Z,1.55
2019-01-28T02:45:55.523Z,1.60
2019-01-28T02:48:23.827Z,1.67
2019-01-28T02:50:52.099Z,1.62
2019-01-28T02:53:20.418Z,1.37
2019-01-28T02:55:48.689Z,1.73
2019-01-28T02:58:16.967Z,1.37
2019-01-28T03:00:45.285Z,1.57
2019-01-28T03:03:13.570Z,1.38
2019-01-28T03:05:41.861Z,1.25
2019-01-28T03:08:10.178Z,1.37
2019-01-28T03:10:38.470Z,1.04
2019-01-28T03:13:06.751Z,1.49
2019-01-28T03:15:35.132Z,1.48
2019-01-28T03:18:03.403Z,0.99
2019-01-28T03:20:31.696Z,1.35
2019-01-28T03:23:00.016Z,1.27
2019-01-28T03:25:28.370Z,1.31
2019-01-28T03:27:56.653Z,0.63
2019-01-28T03:30:24.978Z,1.31
2019-01-28T03:32:53.279Z,1.42
2019-01-28T03:35:21.557Z,1.54
2019-01-28T03:37:49.887Z,1.62
2019-01-28T03:40:19.814Z,1.41
2019-01-28T03:42:48.635Z,1.44
2019-01-28T03:45:18.897Z,1.70
2019-01-28T03:47:47.175Z,1.80
2019-01-28T03:50:17.098Z,1.67
2019-01-28T03:52:45.588Z,1.51
2019-01-28T03:55:13.862Z,1.58
2019-01-28T03:57:42.197Z,1.65
2019-01-28T04:00:18.589Z,1.63
2019-01-28T04:02:46.858Z,1.63
2019-01-28T04:05:15.152Z,1.25
2019-01-28T04:07:43.516Z,1.48
2019-01-28T04:10:15.054Z,1.44
2019-01-28T04:12:43.343Z,0.35
2019-01-28T04:15:14.004Z,0.43
2019-01-28T04:17:42.286Z,0.77
2019-01-28T04:20:12.915Z,1.22
2019-01-28T04:22:41.241Z,1.16
2019-01-28T04:25:10.773Z,1.27
2019-01-28T04:27:39.055Z,1.73
2019-01-28T04:30:10.639Z,1.62
2019-01-28T04:32:38.936Z,1.42
2019-01-28T04:35:08.678Z,1.69
2019-01-28T04:37:36.989Z,1.73
2019-01-28T04:40:11.343Z,1.79
2019-01-28T04:42:39.632Z,1.80
2019-01-28T04:45:10.693Z,1.35
2019-01-28T04:47:38.994Z,1.07
2019-01-28T04:50:10.494Z,1.05
2019-01-28T04:52:38.819Z,1.58
2019-01-28T04:55:08.245Z,1.64
2019-01-28T04:57:36.696Z,1.62
2019-01-28T05:00:08.341Z,1.54
2019-01-28T05:02:36.634Z,1.48
2019-01-28T05:05:05.766Z,1.63
2019-01-28T05:07:34.082Z,1.73
2019-01-28T05:10:02.848Z,1.85
2019-01-28T05:12:31.188Z,1.88
2019-01-28T05:14:59.532Z,1.96
2019-01-28T05:17:27.815Z,1.94
2019-01-28T05:19:56.097Z,1.86
2019-01-28T05:22:24.423Z,1.98
2019-01-28T05:24:52.716Z,1.92
2019-01-28T05:27:20.998Z,1.95
2019-01-28T05:29:49.317Z,1.67
2019-01-28T05:32:17.614Z,1.38
2019-01-28T05:34:45.904Z,1.39
2019-01-28T05:37:15.011Z,1.57
2019-01-28T05:39:43.279Z,1.74
2019-01-28T05:42:11.567Z,1.70
2019-01-28T05:44:39.885Z,1.85
2019-01-28T05:47:08.163Z,1.21
2019-01-28T05:49:36.452Z,1.61
2019-01-28T05:52:04.789Z,1.69
2019-01-28T05:54:33.072Z,1.37
2019-01-28T05:57:01.357Z,0.97
2019-01-28T05:59:29.672Z,1.39
2019-01-28T06:01:57.948Z,1.46
2019-01-28T06:04:26.234Z,1.54
2019-01-28T06:06:54.543Z,1.56
2019-01-28T06:09:22.823Z,1.59
2019-01-28T06:11:51.115Z,1.68
2019-01-28T06:14:19.439Z,1.92
2019-01-28T06:16:47.792Z,1.61
2019-01-28T06:19:16.078Z,1.69
2019-01-28T06:21:44.384Z,2.00
2019-01-28T06:24:12.664Z,2.18
2019-01-28T06:26:40.945Z,2.12
2019-01-28T06:29:09.238Z,2.25
2019-01-28T06:31:37.518Z,2.26
2019-01-28T06:34:05.804Z,2.27
2019-01-28T06:36:34.126Z,2.37
2019-01-28T06:39:02.479Z,2.46
2019-01-28T06:41:30.763Z,2.43
2019-01-28T06:43:59.078Z,2.59
2019-01-28T06:46:27.355Z,2.31
2019-01-28T06:48:55.639Z,2.41
2019-01-28T06:51:23.957Z,2.53
2019-01-28T06:53:52.243Z,2.71
2019-01-28T06:56:20.532Z,2.76
2019-01-28T06:58:48.846Z,2.82
2019-01-28T07:01:17.129Z,2.88
2019-01-28T07:03:45.404Z,2.28
2019-01-28T07:06:13.773Z,2.78
2019-01-28T07:08:43.786Z,2.76
2019-01-28T07:11:12.102Z,3.07
2019-01-28T07:13:40.488Z,3.01
2019-01-28T07:16:09.448Z,2.85
2019-01-28T07:18:37.732Z,3.35
2019-01-28T07:21:06.042Z,3.33
2019-01-28T07:23:34.317Z,3.54
2019-01-28T07:26:02.597Z,3.21
2019-01-28T07:28:30.926Z,3.49
2019-01-28T07:30:59.252Z,3.70
2019-01-28T07:33:27.532Z,3.90
2019-01-28T07:35:55.847Z,4.07
2019-01-28T07:38:24.145Z,4.20
2019-01-28T07:40:52.425Z,4.27
2019-01-28T07:43:20.745Z,4.23
2019-01-28T07:45:49.021Z,4.44
2019-01-28T07:48:17.371Z,4.60
2019-01-28T07:50:45.683Z,4.43
2019-01-28T07:53:14.034Z,4.72
2019-01-28T07:55:42.384Z,4.91
2019-01-28T07:58:10.760Z,5.01
2019-01-28T08:00:39.041Z,5.06
2019-01-28T08:03:07.318Z,4.93
2019-01-28T08:05:35.655Z,3.35
2019-01-28T08:08:04.097Z,4.04
2019-01-28T08:10:32.380Z,3.50
2019-01-28T08:13:00.691Z,4.08
2019-01-28T08:15:29.144Z,4.07
2019-01-28T08:17:57.501Z,4.18
2019-01-28T08:20:25.813Z,4.47
2019-01-28T08:22:54.090Z,4.79
2019-01-28T08:25:22.605Z,2.41
2019-01-28T08:27:51.037Z,3.06
2019-01-28T08:30:27.392Z,3.99
2019-01-28T08:32:55.794Z,3.87
2019-01-28T08:35:24.222Z,3.50
2019-01-28T08:37:52.521Z,3.86
2019-01-28T08:40:22.702Z,4.21
2019-01-28T08:42:50.995Z,3.42
2019-01-28T08:45:19.274Z,3.79
2019-01-28T08:47:47.596Z,4.94
2019-01-28T08:50:26.642Z,5.11
2019-01-28T08:52:55.047Z,4.99
2019-01-28T08:55:25.275Z,5.00
2019-01-28T08:57:53.793Z,4.57
2019-01-28T09:00:24.410Z,5.24
2019-01-28T09:02:52.693Z,5.83
2019-01-28T09:05:22.398Z,5.83
2019-01-28T09:07:50.853Z,6.08
2019-01-28T09:10:21.987Z,5.78
2019-01-28T09:12:50.277Z,6.05
2019-01-28T09:15:20.614Z,6.20
2019-01-28T09:17:48.973Z,5.33
2019-01-28T09:20:28.747Z,5.33
2019-01-28T09:22:57.097Z,5.56
2019-01-28T09:25:25.382Z,5.32
2019-01-28T09:27:53.703Z,5.25
2019-01-28T09:30:26.970Z,5.35
2019-01-28T09:32:55.241Z,6.14
2019-01-28T09:35:23.625Z,6.23
2019-01-28T09:37:52.153Z,6.23
2019-01-28T09:40:25.270Z,5.82
2019-01-28T09:42:53.672Z,5.82
2019-01-28T09:45:24.392Z,6.14
2019-01-28T09:47:52.683Z,6.00
2019-01-28T09:50:21.091Z,6.01
2019-01-28T09:52:50.409Z,6.01
2019-01-28T09:55:18.695Z,5.01
2019-01-28T09:57:47.090Z,5.10
2019-01-28T10:00:21.942Z,5.10
2019-01-28T10:02:50.222Z,5.07
2019-01-28T10:05:18.557Z,5.35
2019-01-28T10:07:46.827Z,6.06
2019-01-28T10:10:19.409Z,6.11
2019-01-28T10:12:47.743Z,5.73
2019-01-28T10:15:19.272Z,5.73
2019-01-28T10:17:47.553Z,6.23
2019-01-28T10:20:19.194Z,6.23
2019-01-28T10:22:47.480Z,5.88
2019-01-28T10:25:15.834Z,5.62
2019-01-28T10:27:44.328Z,5.01
2019-01-28T10:30:15.916Z,5.12
2019-01-28T10:32:44.273Z,6.13
2019-01-28T10:35:12.590Z,6.13
2019-01-28T10:37:40.946Z,5.39
2019-01-28T10:40:15.308Z,5.39
2019-01-28T10:42:43.621Z,5.68
2019-01-28T10:45:13.757Z,5.07
2019-01-28T10:47:42.117Z,5.79
2019-01-28T10:50:13.982Z,5.69
2019-01-28T10:52:42.465Z,5.69
2019-01-28T10:55:12.554Z,5.94
2019-01-28T10:57:40.886Z,5.94
2019-01-28T11:00:15.069Z,5.31
2019-01-28T11:02:43.431Z,6.72
2019-01-28T11:05:11.746Z,6.72
2019-01-28T11:07:40.024Z,5.90
2019-01-28T11:10:11.813Z,5.48
2019-01-28T11:12:40.185Z,5.48
2019-01-28T11:15:14.705Z,6.56
2019-01-28T11:17:43.003Z,7.19
2019-01-28T11:20:12.718Z,7.52
2019-01-28T11:22:41.236Z,8.10
2019-01-28T11:25:15.087Z,7.34
2019-01-28T11:27:43.541Z,7.80
2019-01-28T11:30:15.242Z,8.11
2019-01-28T11:32:43.650Z,7.70
2019-01-28T11:35:12.051Z,8.46
2019-01-28T11:37:40.416Z,7.41
2019-01-28T11:40:14.395Z,7.41
2019-01-28T11:42:42.820Z,7.22
2019-01-28T11:45:14.560Z,7.70
2019-01-28T11:47:42.923Z,6.14
2019-01-28T11:50:14.286Z,5.95
2019-01-28T11:52:42.785Z,5.93
2019-01-28T11:55:11.078Z,6.59
2019-01-28T11:57:39.400Z,6.59
2019-01-28T12:00:37.602Z,6.86
2019-01-28T12:03:06.055Z,6.92
2019-01-28T12:05:34.632Z,6.25
2019-01-28T12:08:04.211Z,6.81
2019-01-28T12:10:32.668Z,6.79
2019-01-28T12:13:01.091Z,7.12
2019-01-28T12:15:29.592Z,6.73
2019-01-28T12:17:57.911Z,6.73
2019-01-28T12:20:26.399Z,7.35
2019-01-28T12:22:54.686Z,7.39
2019-01-28T12:25:23.076Z,6.96
2019-01-28T12:27:51.504Z,6.83
2019-01-28T12:30:23.042Z,7.01
2019-01-28T12:32:51.495Z,7.57
2019-01-28T12:35:19.991Z,6.88
2019-01-28T12:37:48.287Z,6.78
2019-01-28T12:40:20.708Z,6.72
2019-01-28T12:42:49.058Z,6.79
2019-01-28T12:45:22.004Z,7.64
2019-01-28T12:47:50.538Z,7.68
2019-01-28T12:50:20.361Z,7.96
2019-01-28T12:52:48.865Z,7.30
2019-01-28T12:55:21.401Z,6.95
2019-01-28T12:57:49.985Z,7.02
2019-01-28T13:00:28.526Z,6.32
2019-01-28T13:02:57.008Z,6.38
2019-01-28T13:05:25.987Z,6.11
2019-01-28T13:07:54.307Z,6.30
2019-01-28T13:10:24.090Z,5.86
2019-01-28T13:12:52.367Z,5.52
2019-01-28T13:15:26.712Z,6.19
2019-01-28T13:17:54.994Z,7.09
2019-01-28T13:20:23.488Z,7.29
2019-01-28T13:22:52.035Z,7.51
2019-01-28T13:25:22.525Z,7.77
2019-01-28T13:27:51.021Z,7.53
2019-01-28T13:30:24.482Z,7.66
2019-01-28T13:32:52.968Z,7.26
2019-01-28T13:35:21.448Z,7.67
2019-01-28T13:37:49.830Z,7.07
2019-01-28T13:40:19.916Z,6.60
2019-01-28T13:42:48.200Z,7.38
2019-01-28T13:45:21.371Z,6.51
2019-01-28T13:47:50.089Z,6.77
2019-01-28T13:50:21.138Z,7.38
2019-01-28T13:52:49.649Z,5.90
2019-01-28T13:55:18.937Z,6.28
2019-01-28T13:57:47.427Z,7.08
2019-01-28T14:00:24.521Z,7.03
2019-01-28T14:02:52.798Z,6.59
2019-01-28T14:05:21.286Z,6.68
2019-01-28T14:07:49.612Z,6.30
2019-01-28T14:10:20.457Z,6.36
2019-01-28T14:12:48.870Z,6.62
2019-01-28T14:15:25.880Z,6.72
2019-01-28T14:17:54.370Z,6.75
2019-01-28T14:20:30.753Z,7.27
2019-01-28T14:22:59.227Z,6.82
2019-01-28T14:25:27.574Z,6.81
2019-01-28T14:27:56.115Z,6.42
2019-01-28T14:30:36.217Z,6.51
2019-01-28T14:33:05.133Z,6.32
2019-01-28T14:35:33.547Z,6.78
2019-01-28T14:38:03.705Z,6.44
2019-01-28T14:40:32.139Z,5.83
2019-01-28T14:43:00.629Z,6.60
2019-01-28T14:45:29.114Z,6.36
2019-01-28T14:47:57.643Z,6.07
2019-01-28T14:50:32.004Z,5.96
2019-01-28T14:53:00.494Z,6.62
2019-01-28T14:55:29.023Z,6.62
2019-01-28T14:57:57.514Z,6.61
2019-01-28T15:00:29.052Z,6.93
2019-01-28T15:02:57.570Z,5.81
2019-01-28T15:05:25.922Z,6.34
2019-01-28T15:07:54.575Z,6.73
2019-01-28T15:10:23.320Z,6.48
2019-01-28T15:12:51.827Z,6.48
2019-01-28T15:15:22.919Z,5.98
2019-01-28T15:17:51.455Z,5.73
2019-01-28T15:20:19.938Z,5.46
2019-01-28T15:22:48.426Z,5.46
2019-01-28T15:25:17.452Z,5.59
2019-01-28T15:27:45.865Z,5.59
2019-01-28T15:30:23.471Z,6.06
2019-01-28T15:32:51.987Z,6.06
2019-01-28T15:35:20.518Z,5.01
2019-01-28T15:37:49.057Z,5.12
2019-01-28T15:40:20.061Z,5.12
2019-01-28T15:42:48.546Z,5.32
2019-01-28T15:45:28.681Z,5.27
2019-01-28T15:47:57.168Z,5.68
2019-01-28T15:50:25.659Z,5.85
2019-01-28T15:52:54.183Z,5.82
2019-01-28T15:55:28.458Z,5.88
2019-01-28T15:57:56.943Z,6.05
2019-01-28T16:00:27.979Z,6.05
2019-01-28T16:02:56.462Z,5.94
2019-01-28T16:05:24.955Z,5.94
2019-01-28T16:07:53.481Z,5.89
2019-01-28T16:10:21.969Z,5.99
2019-01-28T16:12:50.459Z,5.88
2019-01-28T16:15:24.785Z,5.15
2019-01-28T16:17:53.276Z,5.47
2019-01-28T16:20:21.777Z,5.47
2019-01-28T16:22:50.317Z,5.30
2019-01-28T16:25:18.800Z,5.20
2019-01-28T16:27:47.288Z,5.27
2019-01-28T16:30:26.445Z,5.15
2019-01-28T16:32:54.047Z,5.15
2019-01-28T16:35:23.494Z,4.90
2019-01-28T16:37:52.972Z,4.78
2019-01-28T16:40:26.647Z,4.72
2019-01-28T16:42:55.665Z,4.85
2019-01-28T16:45:24.892Z,4.93
2019-01-28T16:47:53.863Z,5.39
2019-01-28T16:50:31.309Z,5.40
2019-01-28T16:53:00.463Z,5.06
2019-01-28T16:55:29.253Z,5.05
2019-01-28T16:57:58.897Z,4.51
2019-01-28T17:00:30.060Z,4.98
2019-01-28T17:02:58.757Z,5.21
2019-01-28T17:05:27.803Z,5.39
2019-01-28T17:07:56.719Z,5.32
2019-01-28T17:10:25.626Z,4.59
2019-01-28T17:12:54.398Z,4.70
2019-01-28T17:15:23.997Z,4.69
2019-01-28T17:17:52.908Z,4.39
2019-01-28T17:20:35.530Z,4.59
2019-01-28T17:23:02.815Z,4.39
2019-01-28T17:25:40.341Z,4.07
2019-01-28T17:28:09.137Z,4.51
2019-01-28T17:30:43.258Z,4.18
2019-01-28T17:33:12.106Z,4.14
2019-01-28T17:35:40.910Z,4.18
2019-01-28T17:38:10.700Z,4.32
2019-01-28T17:40:40.159Z,4.60
2019-01-28T17:43:10.732Z,5.15
2019-01-28T17:45:39.536Z,4.96
2019-01-28T17:48:09.087Z,5.18
2019-01-28T17:50:43.373Z,5.38
2019-01-28T17:53:08.305Z,5.51
2019-01-28T17:55:37.048Z,5.35
2019-01-28T17:58:06.669Z,5.00
2019-01-28T18:00:39.783Z,5.42
2019-01-28T18:03:08.512Z,5.33
2019-01-28T18:05:37.321Z,5.29
2019-01-28T18:08:06.625Z,4.22
2019-01-28T18:10:35.466Z,4.87
2019-01-28T18:13:04.276Z,4.83
2019-01-28T18:15:32.983Z,4.98
2019-01-28T18:18:04.633Z,4.81
2019-01-28T18:20:36.331Z,5.12
2019-01-28T18:23:05.238Z,5.12
2019-01-28T18:25:36.731Z,4.63
2019-01-28T18:28:06.238Z,5.07
2019-01-28T18:30:51.988Z,5.17
2019-01-28T18:33:20.707Z,5.11
2019-01-28T18:35:49.502Z,5.22
2019-01-28T18:38:19.708Z,4.94
2019-01-28T18:40:48.425Z,3.92
2019-01-28T18:43:17.342Z,3.92
2019-01-28T18:45:46.172Z,4.20
2019-01-28T18:48:16.350Z,4.72
2019-01-28T18:50:45.060Z,4.99
2019-01-28T18:53:13.826Z,5.03
2019-01-28T18:55:43.961Z,4.86
2019-01-28T18:58:12.673Z,4.86
2019-01-28T19:00:41.417Z,4.77
2019-01-28T19:03:10.119Z,5.02
2019-01-28T19:05:56.628Z,5.23
2019-01-28T19:08:27.004Z,5.18
2019-01-28T19:11:00.282Z,5.23
2019-01-28T19:13:30.563Z,5.25
2019-01-28T19:16:00.947Z,5.03
2019-01-28T19:18:34.407Z,4.68
2019-01-28T19:21:13.504Z,4.96
2019-01-28T19:23:42.642Z,5.03
2019-01-28T19:26:11.527Z,5.15
2019-01-28T19:28:40.230Z,5.15
2019-01-28T19:31:09.083Z,4.27
2019-01-28T19:33:37.783Z,5.13
2019-01-28T19:36:06.624Z,4.06
2019-01-28T19:38:35.375Z,4.87
2019-01-28T19:41:04.189Z,4.67
2019-01-28T19:43:32.890Z,5.06
2019-01-28T19:46:01.632Z,4.45
2019-01-28T19:48:30.328Z,5.04
2019-01-28T19:51:00.505Z,5.04
2019-01-28T19:53:29.254Z,5.16
2019-01-28T19:55:57.967Z,5.43
2019-01-28T19:58:26.679Z,5.42
2019-01-28T20:00:55.424Z,5.39
2019-01-28T20:03:24.135Z,5.47
2019-01-28T20:05:52.830Z,5.08
2019-01-28T20:08:21.579Z,4.74
2019-01-28T20:10:50.494Z,4.74
2019-01-28T20:13:19.291Z,4.96
2019-01-28T20:15:48.044Z,5.14
2019-01-28T20:18:16.747Z,5.10
2019-01-28T20:20:45.447Z,5.02
2019-01-28T20:23:14.235Z,4.47
2019-01-28T20:25:42.946Z,4.98
2019-01-28T20:28:13.201Z,4.60
2019-01-28T20:30:42.003Z,4.59
2019-01-28T20:33:10.710Z,5.08
2019-01-28T20:35:39.431Z,4.53
2019-01-28T20:38:15.404Z,4.85
2019-01-28T20:40:38.624Z,5.23
2019-01-28T20:43:08.327Z,4.99
2019-01-28T20:45:44.933Z,4.99
2019-01-28T20:48:10.295Z,5.12
2019-01-28T20:50:38.995Z,5.04
2019-01-28T20:53:07.756Z,5.04
2019-01-28T20:55:36.475Z,4.47
2019-01-28T20:58:05.619Z,4.85
2019-01-28T21:00:34.352Z,5.14
2019-01-28T21:03:03.033Z,4.40
2019-01-28T21:05:31.734Z,4.84
2019-01-28T21:08:01.940Z,5.11
2019-01-28T21:10:30.647Z,4.41
2019-01-28T21:12:59.351Z,4.02
2019-01-28T21:15:28.163Z,4.47
2019-01-28T21:17:56.823Z,4.59
2019-01-28T21:20:25.537Z,4.74
2019-01-28T21:22:54.276Z,5.00
2019-01-28T21:25:28.724Z,4.63
2019-01-28T21:27:57.551Z,4.93
2019-01-28T21:30:31.717Z,5.25
2019-01-28T21:33:00.513Z,5.06
2019-01-28T21:35:49.185Z,4.69
2019-01-28T21:38:25.571Z,4.92
2019-01-28T21:40:54.314Z,5.19
2019-01-28T21:43:23.013Z,4.67
2019-01-28T21:45:52.570Z,4.99
2019-01-28T21:48:21.315Z,5.20
2019-01-28T21:50:50.022Z,5.42
2019-01-28T21:53:18.716Z,5.35
2019-01-28T21:55:47.453Z,5.12
2019-01-28T21:58:16.151Z,5.42
2019-01-28T22:00:45.014Z,4.79
2019-01-28T22:03:13.753Z,5.21
2019-01-28T22:05:42.449Z,4.88
2019-01-28T22:08:11.083Z,4.98
2019-01-28T22:10:39.746Z,4.20
2019-01-28T22:13:08.509Z,4.91
2019-01-28T22:15:37.215Z,5.09
2019-01-28T22:18:06.047Z,5.13
2019-01-28T22:20:34.685Z,5.13
2019-01-28T22:23:03.307Z,5.21
2019-01-28T22:25:32.046Z,5.28
2019-01-28T22:28:00.753Z,5.25
2019-01-28T22:30:29.380Z,4.64
2019-01-28T22:32:58.041Z,4.85
2019-01-28T22:35:26.665Z,4.80
2019-01-28T22:37:55.291Z,5.38
2019-01-28T22:40:23.952Z,5.16
2019-01-28T22:42:52.654Z,4.83
2019-01-28T22:45:21.781Z,4.87
2019-01-28T22:47:51.318Z,4.74
2019-01-28T22:50:21.352Z,4.74
2019-01-28T22:52:49.988Z,4.78
2019-01-28T22:55:21.886Z,5.23
2019-01-28T22:57:50.529Z,5.20
2019-01-28T23:00:51.327Z,5.04
2019-01-28T23:03:21.667Z,4.84
2019-01-28T23:05:50.298Z,4.63
2019-01-28T23:08:18.966Z,4.60
2019-01-28T23:10:47.597Z,5.08
2019-01-28T23:13:16.223Z,4.83
2019-01-28T23:15:44.890Z,4.91
2019-01-28T23:18:13.525Z,4.47
2019-01-28T23:20:42.149Z,4.76
2019-01-28T23:23:10.815Z,4.98
2019-01-28T23:25:39.458Z,4.86
2019-01-28T23:28:09.184Z,4.23
2019-01-28T23:30:37.942Z,4.23
2019-01-28T23:33:06.674Z,3.60
2019-01-28T23:35:35.303Z,4.44
2019-01-28T23:38:05.167Z,4.71
2019-01-28T23:40:33.822Z,5.08
2019-01-28T23:43:02.438Z,4.61
2019-01-28T23:45:31.114Z,5.17
2019-01-28T23:47:59.745Z,5.17
2019-01-28T23:50:29.225Z,5.07
2019-01-28T23:52:57.874Z,5.25
2019-01-28T23:55:26.501Z,5.28
2019-01-28T23:57:56.894Z,5.14
